Cumberland, Georgia
Current Conditions -  °F | °C
As of 12:58 PM on Thursday 27 Nov 2014 (Local Time) from KMGE Reporting Station
Overcast Overcast  
Wind Chill: 38°   Ceiling: 4100
Heat Index: 45°   Visibility: 10mi
Dew Point: 29°   Wind: 14mph
Humidity: 54%   Direction: 320°NW
Pressure: 30.27"   Gusts: 24mph
Location:  33.8691°N, 84.4633°W
Report Text: KMGE 271758Z AUTO 32012G21KT 290V360 10SM BKN041 OVC047 07/M02 A3027 RMK AO2 SLP255 T00701017 10084 20031 50010 $
Loading
Personal Weather Stations






























Interactive Weather Map New forecast layout! Learn more

10-Day Weather Forecast

Advertisements
Track Severe Weather on mobile